createdAt,value
2023-02-11T00:01:34.939Z,35.63
2023-02-11T00:04:05.528Z,32.87
2023-02-11T00:06:35.369Z,33.17
2023-02-11T00:09:06.044Z,35.83
2023-02-11T00:11:34.875Z,35.93
2023-02-11T00:14:05.519Z,35.90
2023-02-11T00:16:34.529Z,33.07
2023-02-11T00:19:06.278Z,32.77
2023-02-11T00:21:36.882Z,34.90
2023-02-11T00:24:07.709Z,31.93
2023-02-11T00:26:37.141Z,34.37
2023-02-11T00:29:06.606Z,36.60
2023-02-11T00:31:35.851Z,33.37
2023-02-11T00:34:07.396Z,33.27
2023-02-11T00:36:36.143Z,34.13
2023-02-11T00:39:06.907Z,38.03
2023-02-11T00:41:37.599Z,36.40
2023-02-11T00:44:06.594Z,32.60
2023-02-11T00:46:35.378Z,35.30
2023-02-11T00:49:04.224Z,33.47
2023-02-11T00:51:33.023Z,33.23
2023-02-11T00:54:01.837Z,41.63
2023-02-11T00:56:32.103Z,33.83
2023-02-11T00:59:00.912Z,33.93
2023-02-11T01:01:29.806Z,34.00
2023-02-11T01:03:58.676Z,32.13
2023-02-11T01:06:27.393Z,37.53
2023-02-11T01:08:56.148Z,35.57
2023-02-11T01:11:25.206Z,35.07
2023-02-11T01:13:55.324Z,38.67
2023-02-11T01:16:24.751Z,36.77
2023-02-11T01:18:55.315Z,33.50
2023-02-11T01:21:24.189Z,33.13
2023-02-11T01:23:53.743Z,34.10
2023-02-11T01:26:22.700Z,35.97
2023-02-11T01:28:52.282Z,31.73
2023-02-11T01:31:23.051Z,32.27
2023-02-11T01:33:51.885Z,30.17
2023-02-11T01:36:20.657Z,30.63
2023-02-11T01:38:49.974Z,33.73
2023-02-11T01:41:20.691Z,37.60
2023-02-11T01:43:51.225Z,29.37
2023-02-11T01:46:39.664Z,30.10
2023-02-11T01:49:11.796Z,34.80
2023-02-11T01:51:43.762Z,31.87
2023-02-11T01:54:35.062Z,32.93
2023-02-11T01:57:24.738Z,31.90
2023-02-11T02:00:00.663Z,32.80
2023-02-11T02:02:35.593Z,30.13
2023-02-11T02:05:10.656Z,34.23
2023-02-11T02:07:50.396Z,32.40
2023-02-11T02:10:23.996Z,36.50
2023-02-11T02:12:52.947Z,34.93
2023-02-11T02:15:24.743Z,32.80
2023-02-11T02:18:03.845Z,38.07
2023-02-11T02:21:02.771Z,32.77
2023-02-11T02:23:49.657Z,36.57
2023-02-11T02:26:53.406Z,33.30
2023-02-11T02:30:00.774Z,34.03
2023-02-11T02:32:45.070Z,32.90
2023-02-11T02:35:25.791Z,37.67
2023-02-11T02:38:02.612Z,32.53
2023-02-11T02:40:35.852Z,30.60
2023-02-11T02:43:06.114Z,36.57
2023-02-11T02:45:35.072Z,31.50
2023-02-11T02:48:05.281Z,34.60
2023-02-11T02:50:37.684Z,32.80
2023-02-11T02:53:18.959Z,32.10
2023-02-11T02:56:00.949Z,33.17
2023-02-11T02:59:09.117Z,35.63
2023-02-11T03:01:45.772Z,32.03
2023-02-11T03:04:22.172Z,32.53
2023-02-11T03:06:56.544Z,35.40
2023-02-11T03:09:32.457Z,33.23
2023-02-11T03:12:03.657Z,31.73
2023-02-11T03:14:34.707Z,33.37
2023-02-11T03:17:06.098Z,35.53
2023-02-11T03:19:39.806Z,33.33
2023-02-11T03:22:12.875Z,33.43
2023-02-11T03:24:43.140Z,32.13
2023-02-11T03:27:17.029Z,33.63
2023-02-11T03:29:54.630Z,29.83
2023-02-11T03:32:29.129Z,31.33
2023-02-11T03:35:04.211Z,35.67
2023-02-11T03:37:37.744Z,33.00
2023-02-11T03:40:10.772Z,33.97
2023-02-11T03:42:44.867Z,32.03
2023-02-11T03:45:18.154Z,34.50
2023-02-11T03:47:52.931Z,32.80
2023-02-11T03:50:24.380Z,34.63
2023-02-11T03:52:54.229Z,43.20
2023-02-11T03:55:25.909Z,28.80
2023-02-11T03:57:54.875Z,34.90
2023-02-11T04:00:31.621Z,32.23
2023-02-11T04:03:00.554Z,34.50
2023-02-11T04:05:30.983Z,34.20
2023-02-11T04:07:59.858Z,35.50
2023-02-11T04:10:28.624Z,35.10
2023-02-11T04:12:57.404Z,31.83
2023-02-11T04:15:26.814Z,33.60
2023-02-11T04:17:55.738Z,35.77
2023-02-11T04:20:24.501Z,34.17
2023-02-11T04:22:54.704Z,31.97
2023-02-11T04:25:23.491Z,38.47
2023-02-11T04:27:52.188Z,36.37
2023-02-11T04:30:21.035Z,36.63
2023-02-11T04:32:49.810Z,36.17
2023-02-11T04:35:18.834Z,33.43
2023-02-11T04:37:47.647Z,34.33
2023-02-11T04:40:18.138Z,38.40
2023-02-11T04:42:46.962Z,33.77
2023-02-11T04:45:15.770Z,38.37
2023-02-11T04:47:44.655Z,41.90
2023-02-11T04:50:13.428Z,37.80
2023-02-11T04:52:42.205Z,35.27
2023-02-11T04:55:11.014Z,39.30
2023-02-11T04:57:41.199Z,41.63
2023-02-11T05:00:11.535Z,37.73
2023-02-11T05:02:40.302Z,39.53
2023-02-11T05:05:09.343Z,42.60
2023-02-11T05:07:38.111Z,39.10
2023-02-11T05:10:07.325Z,40.47
2023-02-11T05:12:36.082Z,45.97
2023-02-11T05:15:07.018Z,39.07
2023-02-11T05:17:35.832Z,42.87
2023-02-11T05:20:04.950Z,46.17
2023-02-11T05:22:33.683Z,40.10
2023-02-11T05:25:02.498Z,44.53
2023-02-11T05:27:31.328Z,46.30
2023-02-11T05:30:00.207Z,43.80
2023-02-11T05:32:30.344Z,45.27
2023-02-11T05:34:59.119Z,52.73
2023-02-11T05:37:28.114Z,42.63
2023-02-11T05:39:56.919Z,47.97
2023-02-11T05:42:25.739Z,49.33
2023-02-11T05:44:54.451Z,43.57
2023-02-11T05:47:23.286Z,45.33
2023-02-11T05:49:53.631Z,47.67
2023-02-11T05:52:23.139Z,44.10
2023-02-11T05:54:52.273Z,44.97
2023-02-11T05:57:21.061Z,48.80
2023-02-11T05:59:49.792Z,47.77
2023-02-11T06:02:18.653Z,51.07
2023-02-11T06:04:47.458Z,45.67
2023-02-11T06:07:17.688Z,49.07
2023-02-11T06:09:46.647Z,48.77
2023-02-11T06:12:15.419Z,50.97
2023-02-11T06:14:44.274Z,53.90
2023-02-11T06:17:15.591Z,48.43
2023-02-11T06:19:44.557Z,49.77
2023-02-11T06:22:13.414Z,50.13
2023-02-11T06:25:00.485Z,47.20
2023-02-11T06:27:30.450Z,49.23
2023-02-11T06:29:59.157Z,50.10
2023-02-11T06:32:44.074Z,51.77
2023-02-11T06:35:14.289Z,50.00
2023-02-11T06:37:43.532Z,48.57
2023-02-11T06:40:14.329Z,49.70
2023-02-11T06:42:43.192Z,52.40
2023-02-11T06:45:13.175Z,49.73
2023-02-11T06:47:42.575Z,53.33
2023-02-11T06:50:14.540Z,50.10
2023-02-11T06:52:43.435Z,59.67
2023-02-11T06:55:13.559Z,51.40
2023-02-11T06:57:42.314Z,53.10
2023-02-11T07:00:12.519Z,57.73
2023-02-11T07:02:41.299Z,57.60
2023-02-11T07:05:10.692Z,50.47
2023-02-11T07:07:39.641Z,52.17
2023-02-11T07:10:08.840Z,58.70
2023-02-11T07:12:39.083Z,58.50
2023-02-11T07:15:08.553Z,55.47
2023-02-11T07:17:37.680Z,59.50
2023-02-11T07:20:07.162Z,56.90
2023-02-11T07:22:35.973Z,52.53
2023-02-11T07:25:05.181Z,54.00
2023-02-11T07:27:33.960Z,60.77
2023-02-11T07:30:06.984Z,54.07
2023-02-11T07:32:36.173Z,58.03
2023-02-11T07:35:05.504Z,57.30
2023-02-11T07:37:35.154Z,61.60
2023-02-11T07:40:04.008Z,59.23
2023-02-11T07:42:32.772Z,61.90
2023-02-11T07:45:01.543Z,57.50
2023-02-11T07:47:31.651Z,56.00
2023-02-11T07:50:00.467Z,59.20
2023-02-11T07:52:31.225Z,57.47
2023-02-11T07:54:59.991Z,52.17
2023-02-11T07:57:28.838Z,51.40
2023-02-11T07:59:57.615Z,60.57
2023-02-11T08:02:26.507Z,52.90
2023-02-11T08:04:56.717Z,60.20
2023-02-11T08:07:26.142Z,60.63
2023-02-11T08:09:55.579Z,56.70
2023-02-11T08:12:24.378Z,55.67
2023-02-11T08:14:53.152Z,54.07
2023-02-11T08:17:21.943Z,52.87
2023-02-11T08:19:50.686Z,56.70
2023-02-11T08:22:20.834Z,59.37
2023-02-11T08:24:52.255Z,55.80
2023-02-11T08:27:21.253Z,54.33
2023-02-11T08:29:50.001Z,58.20
2023-02-11T08:32:18.787Z,61.13
2023-02-11T08:34:47.590Z,56.83
2023-02-11T08:37:16.366Z,58.93
2023-02-11T08:39:47.351Z,58.33
2023-02-11T08:42:16.980Z,55.03
2023-02-11T08:44:45.779Z,59.57
2023-02-11T08:47:14.540Z,55.20
2023-02-11T08:49:43.382Z,60.80
2023-02-11T08:52:12.182Z,56.93
2023-02-11T08:54:40.984Z,51.37
2023-02-11T08:57:11.095Z,52.27
2023-02-11T08:59:40.440Z,52.53
2023-02-11T09:02:13.012Z,62.07
2023-02-11T09:04:42.242Z,54.80
2023-02-11T09:07:12.598Z,62.63
2023-02-11T09:09:41.941Z,53.30
2023-02-11T09:12:12.150Z,52.23
2023-02-11T09:14:42.007Z,57.30
2023-02-11T09:17:10.803Z,55.43
2023-02-11T09:19:39.699Z,54.27
2023-02-11T09:22:09.208Z,57.87
2023-02-11T09:24:38.001Z,53.30
2023-02-11T09:27:07.418Z,54.00
2023-02-11T09:29:37.614Z,53.37
2023-02-11T09:32:09.634Z,49.03
2023-02-11T09:34:38.675Z,54.97
2023-02-11T09:37:07.475Z,52.97
2023-02-11T09:39:36.215Z,53.63
2023-02-11T09:42:39.454Z,50.30
2023-02-11T09:45:17.391Z,48.77
2023-02-11T09:47:53.728Z,51.30
2023-02-11T09:50:28.098Z,47.23
2023-02-11T09:53:01.992Z,49.20
2023-02-11T09:55:34.360Z,53.23
2023-02-11T09:58:05.379Z,51.77
2023-02-11T10:00:40.781Z,58.53
2023-02-11T10:03:38.444Z,49.07
2023-02-11T10:06:23.363Z,48.00
2023-02-11T10:09:03.577Z,53.57
2023-02-11T10:11:41.700Z,51.57
2023-02-11T10:14:26.619Z,52.93
2023-02-11T10:17:09.102Z,50.47
2023-02-11T10:19:51.867Z,54.83
2023-02-11T10:22:25.713Z,52.43
2023-02-11T10:24:58.410Z,51.50
2023-02-11T10:27:32.308Z,53.83
2023-02-11T10:30:05.707Z,49.50
2023-02-11T10:32:44.305Z,49.70
2023-02-11T10:35:18.008Z,45.30
2023-02-11T10:37:46.803Z,50.17
2023-02-11T10:40:17.987Z,45.90
2023-02-11T10:42:49.818Z,50.50
2023-02-11T10:45:24.679Z,48.77
2023-02-11T10:47:55.496Z,48.07
2023-02-11T10:50:26.946Z,48.57
2023-02-11T10:53:14.071Z,46.07
2023-02-11T10:55:52.335Z,46.40
2023-02-11T10:58:26.683Z,50.27
2023-02-11T11:00:57.631Z,44.17
2023-02-11T11:03:29.931Z,45.27
2023-02-11T11:06:00.979Z,46.40
2023-02-11T11:08:40.920Z,47.73
2023-02-11T11:11:11.269Z,44.77
2023-02-11T11:13:41.797Z,47.77
2023-02-11T11:16:26.400Z,46.17
2023-02-11T11:19:23.717Z,43.13
2023-02-11T11:21:53.780Z,42.50
2023-02-11T11:24:27.650Z,48.30
2023-02-11T11:27:00.942Z,40.40
2023-02-11T11:29:35.942Z,41.17
2023-02-11T11:32:12.518Z,39.80
2023-02-11T11:34:45.133Z,44.60
2023-02-11T11:37:21.274Z,42.90
2023-02-11T11:39:59.855Z,41.17
2023-02-11T11:42:32.367Z,41.83
2023-02-11T11:45:02.801Z,45.23
2023-02-11T11:47:37.222Z,38.53
2023-02-11T11:50:29.195Z,40.73
2023-02-11T11:53:06.074Z,40.93
2023-02-11T11:55:41.809Z,38.67
2023-02-11T11:58:16.127Z,42.50
2023-02-11T12:00:59.977Z,41.07
2023-02-11T12:04:09.134Z,45.60
2023-02-11T12:06:48.874Z,39.43
2023-02-11T12:09:26.976Z,46.70
2023-02-11T12:12:07.275Z,42.60
2023-02-11T12:14:48.017Z,39.43
2023-02-11T12:17:34.948Z,42.77
2023-02-11T12:20:18.932Z,45.33
2023-02-11T12:22:58.431Z,45.30
2023-02-11T12:25:29.090Z,42.83
2023-02-11T12:28:11.670Z,42.03
2023-02-11T12:30:54.051Z,44.27
2023-02-11T12:33:37.488Z,43.20
2023-02-11T12:36:15.398Z,43.43
2023-02-11T12:38:58.867Z,44.17
2023-02-11T12:42:04.444Z,44.03
2023-02-11T12:44:41.781Z,50.33
2023-02-11T12:47:18.018Z,43.00
2023-02-11T12:49:58.019Z,46.93
2023-02-11T12:52:45.038Z,47.80
2023-02-11T12:55:21.032Z,43.70
2023-02-11T12:57:52.245Z,47.83
2023-02-11T13:00:24.837Z,49.60
2023-02-11T13:02:59.944Z,44.83
2023-02-11T13:05:33.029Z,51.87
2023-02-11T13:08:06.957Z,46.77
2023-02-11T13:10:39.347Z,47.70
2023-02-11T13:13:19.321Z,49.50
2023-02-11T13:15:56.259Z,47.63
2023-02-11T13:18:49.556Z,46.80
2023-02-11T13:21:33.514Z,46.77
2023-02-11T13:24:10.785Z,50.20
2023-02-11T13:26:48.941Z,49.47
2023-02-11T13:29:30.057Z,47.93
2023-02-11T13:32:08.422Z,44.33
2023-02-11T13:34:58.445Z,45.67
2023-02-11T13:37:31.923Z,49.23
2023-02-11T13:40:02.706Z,44.40
2023-02-11T13:42:35.187Z,45.80
2023-02-11T13:45:04.203Z,50.33
2023-02-11T13:47:35.980Z,48.97
2023-02-11T13:50:09.752Z,43.63
2023-02-11T13:52:39.810Z,40.97
2023-02-11T13:55:16.354Z,49.20
2023-02-11T13:57:46.641Z,46.43
2023-02-11T14:00:50.377Z,39.27
2023-02-11T14:03:49.416Z,41.27
2023-02-11T14:06:38.890Z,44.13
2023-02-11T14:09:40.237Z,42.97
2023-02-11T14:12:34.656Z,43.43
2023-02-11T14:15:22.091Z,43.00
2023-02-11T14:17:52.512Z,37.80
2023-02-11T14:20:40.576Z,39.80
2023-02-11T14:23:27.362Z,42.33
2023-02-11T14:26:23.724Z,41.87
2023-02-11T14:28:57.940Z,39.33
2023-02-11T14:31:30.434Z,38.83
2023-02-11T14:34:31.379Z,37.33
2023-02-11T14:37:14.973Z,40.50
2023-02-11T14:40:06.997Z,42.00
2023-02-11T14:42:39.071Z,39.20
2023-02-11T14:45:12.072Z,39.97
2023-02-11T14:47:50.231Z,42.17
2023-02-11T14:50:25.263Z,80.60
2023-02-11T14:52:56.857Z,41.83
2023-02-11T14:55:31.192Z,38.73
2023-02-11T14:58:07.665Z,44.73
2023-02-11T15:00:36.575Z,38.43
2023-02-11T15:03:06.842Z,40.07
2023-02-11T15:05:36.662Z,39.10
2023-02-11T15:08:09.095Z,39.53
2023-02-11T15:10:44.436Z,42.57
2023-02-11T15:13:20.164Z,39.93
2023-02-11T15:15:51.170Z,36.40
2023-02-11T15:18:24.239Z,41.13
2023-02-11T15:20:53.725Z,38.20
2023-02-11T15:23:26.609Z,43.87
2023-02-11T15:25:56.625Z,37.60
2023-02-11T15:28:28.916Z,39.93
2023-02-11T15:30:59.814Z,45.10
2023-02-11T15:33:32.227Z,43.77
2023-02-11T15:36:02.892Z,53.40
2023-02-11T15:38:32.443Z,47.87
2023-02-11T15:41:02.974Z,49.03
2023-02-11T15:43:45.571Z,42.13
2023-02-11T15:46:18.422Z,37.20
2023-02-11T15:48:51.768Z,41.27
2023-02-11T15:51:24.489Z,39.23
2023-02-11T15:53:58.472Z,40.37
2023-02-11T15:56:30.832Z,40.73
2023-02-11T15:59:01.830Z,35.07
2023-02-11T16:01:34.043Z,37.53
2023-02-11T16:04:05.919Z,37.97
2023-02-11T16:06:39.816Z,34.53
2023-02-11T16:09:26.295Z,35.60
2023-02-11T16:11:58.174Z,40.00
2023-02-11T16:14:32.421Z,38.90
2023-02-11T16:17:06.190Z,37.87
2023-02-11T16:19:37.993Z,37.60
2023-02-11T16:22:11.330Z,37.90
2023-02-11T16:24:40.917Z,37.97
2023-02-11T16:27:22.473Z,36.23
2023-02-11T16:29:52.402Z,31.03
2023-02-11T16:32:22.882Z,39.57
2023-02-11T16:34:55.136Z,33.97
2023-02-11T16:37:24.144Z,33.13
2023-02-11T16:39:55.751Z,32.27
2023-02-11T16:42:24.650Z,31.67
2023-02-11T16:44:53.396Z,31.97
2023-02-11T16:47:25.764Z,29.20
2023-02-11T16:49:57.601Z,33.83
2023-02-11T16:52:26.564Z,30.70
2023-02-11T16:54:55.472Z,33.80
2023-02-11T16:57:27.555Z,41.10
2023-02-11T16:59:59.044Z,34.60
2023-02-11T17:02:30.619Z,31.93
2023-02-11T17:05:03.047Z,31.13
2023-02-11T17:07:32.290Z,30.80
2023-02-11T17:10:01.128Z,32.77
2023-02-11T17:12:29.995Z,32.67
2023-02-11T17:14:59.004Z,30.33
2023-02-11T17:17:29.405Z,32.50
2023-02-11T17:19:58.405Z,31.37
2023-02-11T17:22:28.898Z,33.73
2023-02-11T17:24:58.755Z,35.70
2023-02-11T17:27:27.624Z,29.47
2023-02-11T17:29:56.502Z,33.80
2023-02-11T17:32:25.330Z,27.33
2023-02-11T17:34:54.366Z,30.23
2023-02-11T17:37:23.110Z,35.40
2023-02-11T17:39:53.308Z,33.67
2023-02-11T17:42:22.086Z,28.43
2023-02-11T17:44:50.820Z,32.73
2023-02-11T17:47:19.559Z,33.53
2023-02-11T17:49:48.345Z,29.97
2023-02-11T17:52:18.154Z,28.13
2023-02-11T17:54:47.154Z,30.43
2023-02-11T17:57:17.678Z,29.93
2023-02-11T17:59:46.760Z,30.13
2023-02-11T18:02:15.697Z,32.40
2023-02-11T18:04:44.438Z,26.53
2023-02-11T18:07:13.215Z,31.17
2023-02-11T18:09:42.790Z,31.17
2023-02-11T18:12:11.848Z,28.30
2023-02-11T18:14:42.475Z,31.23
2023-02-11T18:17:12.374Z,29.97
2023-02-11T18:19:41.160Z,29.73
2023-02-11T18:22:09.968Z,29.47
2023-02-11T18:24:38.860Z,32.17
2023-02-11T18:27:07.606Z,26.53
2023-02-11T18:29:36.931Z,28.30
2023-02-11T18:32:07.262Z,26.57
2023-02-11T18:34:36.126Z,30.60
2023-02-11T18:37:04.849Z,32.27
2023-02-11T18:39:33.731Z,27.43
2023-02-11T18:42:02.449Z,25.07
2023-02-11T18:44:31.306Z,25.07
2023-02-11T18:47:00.144Z,23.87
2023-02-11T18:49:30.276Z,25.23
2023-02-11T18:51:59.424Z,25.40
2023-02-11T18:54:28.286Z,24.43
2023-02-11T18:56:57.016Z,23.03
2023-02-11T18:59:25.779Z,25.83
2023-02-11T19:01:54.523Z,29.23
2023-02-11T19:04:23.415Z,22.30
2023-02-11T19:06:53.568Z,21.53
2023-02-11T19:09:22.580Z,30.73
2023-02-11T19:11:51.313Z,24.60
2023-02-11T19:14:22.659Z,24.13
2023-02-11T19:16:52.967Z,24.53
2023-02-11T19:19:23.270Z,29.40
2023-02-11T19:21:53.524Z,22.70
2023-02-11T19:24:23.558Z,17.70
2023-02-11T19:26:53.694Z,23.87
2023-02-11T19:29:22.482Z,21.00
2023-02-11T19:31:51.340Z,22.83
2023-02-11T19:34:21.159Z,20.87
2023-02-11T19:36:50.605Z,21.27
2023-02-11T19:39:20.991Z,23.33
2023-02-11T19:41:49.799Z,25.93
2023-02-11T19:44:18.697Z,15.97
2023-02-11T19:46:48.456Z,24.47
2023-02-11T19:49:23.015Z,21.87
2023-02-11T19:51:52.770Z,18.63
2023-02-11T19:54:22.954Z,18.13
2023-02-11T19:56:52.062Z,17.50
2023-02-11T19:59:21.714Z,23.63
2023-02-11T20:01:50.600Z,19.00
2023-02-11T20:04:19.860Z,20.13
2023-02-11T20:06:49.482Z,22.73
2023-02-11T20:09:18.596Z,18.37
2023-02-11T20:11:49.394Z,19.50
2023-02-11T20:14:18.207Z,19.87
2023-02-11T20:16:49.794Z,20.77
2023-02-11T20:19:21.327Z,18.43
2023-02-11T20:21:52.713Z,19.90
2023-02-11T20:24:21.774Z,17.27
2023-02-11T20:26:55.542Z,19.47
2023-02-11T20:29:25.245Z,22.37
2023-02-11T20:31:54.795Z,22.40
2023-02-11T20:34:25.156Z,19.70
2023-02-11T20:36:54.801Z,20.50
2023-02-11T20:39:24.388Z,19.20
2023-02-11T20:41:56.529Z,19.67
2023-02-11T20:44:25.656Z,19.90
2023-02-11T20:46:54.916Z,23.53
2023-02-11T20:49:25.172Z,17.10
2023-02-11T20:51:54.479Z,22.53
2023-02-11T20:54:24.173Z,29.87
2023-02-11T20:56:56.870Z,26.77
2023-02-11T20:59:25.715Z,24.03
2023-02-11T21:01:56.848Z,22.90
2023-02-11T21:04:27.718Z,21.33
2023-02-11T21:06:58.603Z,19.53
2023-02-11T21:09:30.308Z,18.07
2023-02-11T21:12:00.978Z,19.13
2023-02-11T21:14:30.119Z,20.13
2023-02-11T21:16:59.224Z,18.43
2023-02-11T21:19:28.042Z,26.20
2023-02-11T21:22:00.505Z,20.23
2023-02-11T21:24:30.860Z,20.50
2023-02-11T21:27:01.178Z,15.50
2023-02-11T21:29:29.958Z,20.57
2023-02-11T21:31:58.938Z,20.57
2023-02-11T21:34:27.798Z,24.83
2023-02-11T21:36:56.617Z,23.93
2023-02-11T21:39:25.386Z,22.67
2023-02-11T21:41:55.930Z,23.67
2023-02-11T21:44:26.197Z,21.97
2023-02-11T21:46:55.017Z,23.67
2023-02-11T21:49:23.796Z,22.53
2023-02-11T21:51:52.603Z,22.37
2023-02-11T21:54:21.641Z,20.00
2023-02-11T21:56:51.830Z,22.50
2023-02-11T21:59:20.595Z,25.20
2023-02-11T22:01:50.975Z,21.07
2023-02-11T22:04:19.781Z,22.40
2023-02-11T22:06:48.626Z,23.43
2023-02-11T22:09:17.510Z,25.30
2023-02-11T22:11:46.282Z,23.03
2023-02-11T22:14:15.093Z,24.87
2023-02-11T22:16:46.460Z,22.90
2023-02-11T22:19:17.298Z,18.57
2023-02-11T22:21:46.116Z,25.83
2023-02-11T22:24:14.843Z,23.07
2023-02-11T22:26:43.751Z,29.60
2023-02-11T22:29:12.894Z,27.50
2023-02-11T22:31:42.038Z,23.93
2023-02-11T22:34:11.134Z,22.23
2023-02-11T22:36:42.779Z,25.03
2023-02-11T22:39:17.957Z,24.83
2023-02-11T22:41:48.368Z,25.30
2023-02-11T22:44:18.408Z,22.13
2023-02-11T22:46:47.359Z,24.73
2023-02-11T22:49:17.784Z,25.87
2023-02-11T22:51:48.751Z,23.80
2023-02-11T22:54:20.279Z,22.10
2023-02-11T22:56:52.112Z,23.20
2023-02-11T22:59:21.321Z,20.20
2023-02-11T23:01:50.329Z,22.63
2023-02-11T23:04:20.912Z,20.07
2023-02-11T23:06:51.112Z,21.93
2023-02-11T23:09:19.919Z,19.20
2023-02-11T23:11:50.054Z,27.80
2023-02-11T23:14:18.775Z,27.73
2023-02-11T23:16:50.454Z,25.77
2023-02-11T23:19:20.098Z,26.73
2023-02-11T23:21:53.632Z,21.90
2023-02-11T23:24:22.412Z,20.93
2023-02-11T23:26:51.379Z,25.97
2023-02-11T23:29:20.148Z,23.07
2023-02-11T23:31:49.858Z,17.73
2023-02-11T23:34:23.903Z,26.07
2023-02-11T23:36:54.113Z,26.20
2023-02-11T23:39:22.862Z,26.33
2023-02-11T23:41:58.855Z,23.50
2023-02-11T23:44:27.635Z,18.30
2023-02-11T23:46:56.410Z,17.07
2023-02-11T23:49:25.232Z,20.30
2023-02-11T23:51:55.378Z,21.23
2023-02-11T23:54:24.310Z,24.37
2023-02-11T23:56:53.045Z,21.23
2023-02-11T23:59:21.858Z,20.87
